Time;durP1;ratioP1;P1;durP2;ratioP2;P2;SDS_P1;SDS_P2;PMS_P1;PMS_P2;Temp;Humidity;BMP_temperature;BMP_pressure;BME280_temperature;BME280_humidity;BME280_pressure;Samples;Min_cycle;Max_cycle;Signal;HPM_P1;HPM_P2
2022/03/07 00:02:52;;;;;;;12.13;4.65;;;;;;;-15.11;59.73;95137.03;6321297;28;20524;-65
2022/03/07 00:05:56;;;;;;;9.45;4.78;;;;;;;-15.18;60.02;95140.31;6322274;28;20040;-64
2022/03/07 00:09:01;;;;;;;9.70;5.20;;;;;;;-15.27;59.87;95153.72;6320940;28;20430;-64
2022/03/07 00:12:05;;;;;;;15.45;6.88;;;;;;;-15.38;59.63;95153.66;6321828;28;20375;-64
2022/03/07 00:15:09;;;;;;;13.02;6.35;;;;;;;-15.44;59.83;95165.38;6321678;28;20054;-63
2022/03/07 00:18:14;;;;;;;15.70;6.80;;;;;;;-15.56;59.53;95155.22;6322564;28;20040;-65
2022/03/07 00:21:19;;;;;;;9.32;5.05;;;;;;;-15.64;59.87;95160.19;6321872;28;20536;-64
2022/03/07 00:24:23;;;;;;;15.75;6.60;;;;;;;-15.74;59.50;95163.47;6321785;28;20048;-63
2022/03/07 00:27:28;;;;;;;9.48;5.78;;;;;;;-15.78;59.63;95160.09;6321894;28;20062;-63
2022/03/07 00:30:32;;;;;;;14.82;7.60;;;;;;;-15.87;59.24;95165.06;6321470;28;20558;-63
2022/03/07 00:33:36;;;;;;;21.05;8.88;;;;;;;-15.89;59.25;95174.28;6321052;28;20044;-64
2022/03/07 00:36:41;;;;;;;19.63;9.68;;;;;;;-16.04;58.97;95166.59;6321615;28;20040;-63
2022/03/07 00:39:46;;;;;;;13.18;7.18;;;;;;;-16.10;58.99;95167.38;6320412;28;20412;-63
2022/03/07 00:42:51;;;;;;;16.13;6.45;;;;;;;-16.22;59.06;95163.03;6321391;28;20054;-62
2022/03/07 00:45:56;;;;;;;16.35;7.90;;;;;;;-16.22;59.06;95174.78;6319802;28;20048;-64
2022/03/07 00:49:01;;;;;;;16.10;8.73;;;;;;;-16.26;58.72;95183.16;6321014;28;20040;-64
2022/03/07 00:52:05;;;;;;;17.02;9.25;;;;;;;-16.32;58.71;95189.78;6321072;28;20121;-63
2022/03/07 00:55:09;;;;;;;11.05;6.60;;;;;;;-16.41;58.77;95187.19;6320848;28;20043;-64
2022/03/07 00:58:15;;;;;;;9.85;5.72;;;;;;;-16.49;58.81;95203.03;6320762;28;20044;-63
2022/03/07 01:01:20;;;;;;;9.88;5.28;;;;;;;-16.56;58.56;95192.03;6321095;28;20135;-64
2022/03/07 01:04:24;;;;;;;9.70;6.00;;;;;;;-16.65;58.50;95191.91;6319428;28;20419;-64
2022/03/07 01:07:29;;;;;;;8.90;4.95;;;;;;;-16.61;58.43;95203.72;6320488;28;20613;-64
2022/03/07 01:10:34;;;;;;;9.05;4.97;;;;;;;-16.63;57.96;95205.38;6320971;28;20055;-63
2022/03/07 01:13:40;;;;;;;10.40;4.60;;;;;;;-16.62;58.02;95202.03;6320743;28;20062;-65
2022/03/07 01:16:44;;;;;;;6.90;3.85;;;;;;;-16.65;57.87;95199.47;6320744;28;20418;-64
2022/03/07 01:19:48;;;;;;;7.07;4.00;;;;;;;-16.69;57.87;95205.31;6320680;28;20422;-63
2022/03/07 01:22:53;;;;;;;8.30;3.85;;;;;;;-16.73;57.75;95211.09;6319403;28;20047;-64
2022/03/07 01:25:57;;;;;;;9.88;3.88;;;;;;;-16.78;57.99;95216.97;6320619;28;20205;-64
2022/03/07 01:29:03;;;;;;;7.18;4.15;;;;;;;-16.84;58.03;95226.09;6319049;28;20511;-64
2022/03/07 01:32:08;;;;;;;6.32;3.92;;;;;;;-16.93;57.86;95220.94;6320353;28;20044;-63
2022/03/07 01:35:13;;;;;;;7.10;4.43;;;;;;;-17.04;57.82;95223.28;6320443;28;20039;-64
2022/03/07 01:38:18;;;;;;;6.30;3.50;;;;;;;-17.15;57.90;95239.91;6320385;28;20039;-64
2022/03/07 01:41:22;;;;;;;12.07;4.72;;;;;;;-17.24;58.18;95250.66;6320434;28;20043;-64
2022/03/07 01:44:28;;;;;;;8.13;3.60;;;;;;;-17.30;57.72;95250.56;6320803;28;20044;-63
2022/03/07 01:47:34;;;;;;;9.98;4.53;;;;;;;-17.33;58.05;95258.91;6324904;28;20040;-64
2022/03/07 01:50:38;;;;;;;8.30;4.75;;;;;;;-17.34;58.18;95264.78;6325712;28;20048;-65
2022/03/07 01:53:43;;;;;;;9.77;4.40;;;;;;;-17.29;58.25;95263.19;6325661;28;20040;-63
2022/03/07 01:56:50;;;;;;;10.75;5.25;;;;;;;-17.23;58.56;95268.31;6325687;28;20498;-64
2022/03/07 01:59:55;;;;;;;13.73;4.65;;;;;;;-17.10;58.77;95273.50;6325885;28;20486;-63
2022/03/07 02:03:01;;;;;;;11.95;5.03;;;;;;;-17.06;57.93;95265.22;6325612;28;20043;-63
2022/03/07 02:06:06;;;;;;;11.45;5.03;;;;;;;-17.01;57.85;95273.63;6325146;28;20048;-64
2022/03/07 02:09:10;;;;;;;7.50;4.90;;;;;;;-17.04;57.75;95271.94;6325058;28;20036;-65
2022/03/07 02:12:15;;;;;;;12.32;5.65;;;;;;;-17.08;57.53;95281.94;6325015;28;20064;-65
2022/03/07 02:15:22;;;;;;;11.30;6.13;;;;;;;-17.13;57.69;95283.53;6325028;28;20490;-64
2022/03/07 02:18:28;;;;;;;10.57;4.75;;;;;;;-17.15;57.74;95288.53;6306967;28;20052;-63
2022/03/07 02:21:35;;;;;;;10.40;5.85;;;;;;;-17.18;57.75;95290.13;6324676;28;20051;-64
2022/03/07 02:24:41;;;;;;;13.98;6.22;;;;;;;-17.25;57.69;95279.16;6323131;28;20051;-63
2022/03/07 02:27:46;;;;;;;15.15;6.82;;;;;;;-17.31;57.73;95284.94;6324604;28;20040;-64
2022/03/07 02:30:51;;;;;;;11.15;4.65;;;;;;;-17.31;57.50;95292.47;6324624;28;20044;-63
2022/03/07 02:33:56;;;;;;;10.00;5.13;;;;;;;-17.36;57.80;95296.56;6323045;28;20047;-63
2022/03/07 02:37:01;;;;;;;7.07;4.80;;;;;;;-17.45;57.67;95307.31;6324287;28;20044;-63
2022/03/07 02:40:07;;;;;;;10.32;4.97;;;;;;;-17.48;57.42;95304.75;6324518;28;20050;-64
2022/03/07 02:43:12;;;;;;;8.80;4.55;;;;;;;-17.49;58.03;95302.19;6324370;28;20050;-64
2022/03/07 02:46:17;;;;;;;10.43;4.97;;;;;;;-17.47;57.76;95308.09;6324448;28;20032;-64
2022/03/07 02:49:22;;;;;;;8.48;4.63;;;;;;;-17.42;57.49;95310.72;6322532;28;20068;-64
2022/03/07 02:52:26;;;;;;;17.88;5.72;;;;;;;-17.38;57.71;95312.44;6323982;28;20495;-63
2022/03/07 02:55:33;;;;;;;12.43;6.22;;;;;;;-17.36;57.46;95311.66;6323911;28;20036;-63
2022/03/07 02:58:38;;;;;;;11.35;5.32;;;;;;;-17.36;56.96;95319.19;6323678;28;20039;-63
2022/03/07 03:01:44;;;;;;;14.05;7.28;;;;;;;-17.35;56.94;95328.44;6323915;28;20071;-63
2022/03/07 03:04:48;;;;;;;20.38;7.30;;;;;;;-17.33;56.74;95326.78;6323573;28;20036;-64
2022/03/07 03:07:53;;;;;;;19.50;6.97;;;;;;;-17.27;56.66;95328.56;6323942;28;20044;-64
2022/03/07 03:10:58;;;;;;;18.63;8.15;;;;;;;-17.25;56.77;95340.34;6324042;28;20044;-65
2022/03/07 03:14:03;;;;;;;18.75;9.02;;;;;;;-17.16;56.48;95348.84;6323999;28;20048;-64
2022/03/07 03:17:08;;;;;;;16.92;7.53;;;;;;;-17.06;56.18;95353.22;6323536;28;20039;-64
2022/03/07 03:20:14;;;;;;;20.35;7.78;;;;;;;-16.94;55.78;95355.94;6323451;28;20503;-65
2022/03/07 03:23:20;;;;;;;25.10;11.18;;;;;;;-16.76;55.97;95360.41;6322101;28;20101;-66
2022/03/07 03:26:25;;;;;;;15.57;8.57;;;;;;;-16.53;55.41;95358.19;6321579;28;20050;-65
2022/03/07 03:29:30;;;;;;;14.02;6.05;;;;;;;-16.24;55.23;95367.84;6323164;28;20185;-65
2022/03/07 03:32:37;;;;;;;23.48;8.82;;;;;;;-15.98;55.41;95364.00;6323245;28;20042;-64
2022/03/07 03:35:42;;;;;;;18.35;7.63;;;;;;;-15.74;54.95;95367.63;6323353;28;20044;-64
2022/03/07 03:38:47;;;;;;;19.55;7.07;;;;;;;-15.57;54.40;95366.13;6322619;28;20051;-64
2022/03/07 03:41:52;;;;;;;13.98;7.78;;;;;;;-15.44;53.45;95370.47;6322450;28;20499;-64
2022/03/07 03:44:57;;;;;;;20.55;7.60;;;;;;;-15.31;53.40;95381.56;6322764;28;20044;-63
2022/03/07 03:48:03;;;;;;;14.80;9.60;;;;;;;-15.15;53.31;95380.00;6322656;28;20047;-63
2022/03/07 03:51:07;;;;;;;18.17;7.78;;;;;;;-14.95;53.07;95378.50;6322635;28;20039;-63
2022/03/07 03:54:11;;;;;;;17.73;7.70;;;;;;;-14.49;52.74;95390.66;6322316;28;20036;-65
2022/03/07 03:57:16;;;;;;;30.60;9.48;;;;;;;-13.96;52.32;95399.44;6322304;28;20047;-64
2022/03/07 04:00:21;;;;;;;15.82;7.63;;;;;;;-13.38;51.45;95395.50;6322940;28;20054;-64
2022/03/07 04:03:27;;;;;;;8.52;5.13;;;;;;;-12.80;50.79;95398.97;6322360;28;20387;-64
2022/03/07 04:06:31;;;;;;;12.05;5.75;;;;;;;-12.21;49.60;95410.84;6322196;28;20040;-65
2022/03/07 04:09:36;;;;;;;14.32;5.95;;;;;;;-11.69;49.54;95403.13;6321706;28;20036;-64
2022/03/07 04:12:42;;;;;;;9.88;5.60;;;;;;;-11.21;48.84;95413.09;6321577;28;20060;-63
2022/03/07 04:15:48;;;;;;;9.38;5.20;;;;;;;-10.87;48.67;95419.75;6322034;28;20032;-63
2022/03/07 04:18:53;;;;;;;10.68;4.85;;;;;;;-10.71;48.97;95429.81;6322060;28;20149;-64
2022/03/07 04:21:57;;;;;;;8.30;5.05;;;;;;;-10.70;49.12;95426.41;6321977;28;20361;-64
2022/03/07 04:25:01;;;;;;;;;;;;;;;-10.66;49.72;95420.47;6320449;28;20043;-63
2022/03/07 04:28:07;;;;;;;9.45;5.43;;;;;;;-10.60;50.02;95422.13;6321556;28;19920;-65
2022/03/07 04:31:10;;;;;;;;;;;;;;;-10.35;49.98;95425.34;6320633;28;20043;-64
2022/03/07 04:34:15;;;;;;;11.18;5.53;;;;;;;-10.06;49.78;95420.00;6321623;28;20395;-65
2022/03/07 04:37:21;;;;;;;10.93;6.13;;;;;;;-9.76;49.48;95423.97;6321412;28;20052;-63
2022/03/07 04:40:28;;;;;;;11.13;5.85;;;;;;;-9.49;49.55;95431.31;6320177;28;20032;-64
2022/03/07 04:43:33;;;;;;;42.05;17.33;;;;;;;-9.20;49.07;95430.16;6321464;28;20039;-63
2022/03/07 04:46:37;;;;;;;;;;;;;;;-8.87;49.24;95433.19;6321818;28;20127;-64
2022/03/07 04:49:41;;;;;;;15.93;6.97;;;;;;;-8.50;49.03;95440.34;6320270;28;20006;-64
2022/03/07 04:52:44;;;;;;;;;;;;;;;-8.17;48.33;95442.38;6321705;28;20044;-64
2022/03/07 04:55:49;;;;;;;14.25;7.03;;;;;;;-8.00;48.21;95446.38;6321527;28;20298;-64
2022/03/07 04:58:54;;;;;;;14.75;7.18;;;;;;;-7.92;48.38;95457.31;6320230;28;20052;-64
2022/03/07 05:01:59;;;;;;;13.68;6.95;;;;;;;-7.95;48.27;95453.09;6321210;28;20135;-64
2022/03/07 05:05:04;;;;;;;14.65;6.25;;;;;;;-7.92;48.63;95458.16;6321589;28;20503;-64
2022/03/07 05:08:08;;;;;;;14.40;6.47;;;;;;;-7.99;48.56;95460.81;6320062;28;20189;-64
2022/03/07 05:11:11;;;;;;;;;;;;;;;-8.07;48.77;95457.53;6321431;28;20737;-65
2022/03/07 05:14:17;;;;;;;9.07;3.97;;;;;;;-8.31;49.40;95469.81;6321497;28;19920;-65
2022/03/07 05:17:22;;;;;;;7.57;4.43;;;;;;;-8.50;49.87;95464.13;6319232;28;20048;-65
2022/03/07 05:20:28;;;;;;;8.18;4.10;;;;;;;-8.75;50.19;95461.06;6320697;28;20048;-64
2022/03/07 05:23:32;;;;;;;9.88;4.53;;;;;;;-8.96;50.21;95463.88;6320382;28;20044;-64
2022/03/07 05:26:35;;;;;;;;;;;;;;;-9.11;50.13;95470.84;6320969;28;20035;-64
2022/03/07 05:29:39;;;;;;;3.47;2.20;;;;;;;-9.16;50.43;95466.66;6320496;28;19915;-65
2022/03/07 05:32:53;;;;;;;4.10;2.65;;;;;;;-9.18;49.96;95468.38;6320528;28;20044;-65
2022/03/07 05:35:58;;;;;;;6.32;2.85;;;;;;;-9.20;50.07;95470.91;6320437;28;20036;-65
2022/03/07 05:39:04;;;;;;;4.53;2.65;;;;;;;-9.00;49.49;95467.31;6320521;28;20421;-63
2022/03/07 05:42:08;;;;;;;3.15;2.28;;;;;;;-8.69;48.76;95467.78;6319397;28;20048;-64
2022/03/07 05:45:12;;;;;;;;;;;;;;;-8.18;48.29;95475.56;6320687;28;20044;-65
2022/03/07 05:48:17;;;;;;;3.70;1.77;;;;;;;-5.53;44.64;95472.91;6320542;28;19920;-64
2022/03/07 05:51:23;;;;;;;;;;;;;;;-1.69;38.77;95477.00;6320609;28;20040;-64
2022/03/07 05:54:27;;;;;;;2.67;1.75;;;;;;;0.49;34.28;95477.09;6319936;28;19920;-64
2022/03/07 05:57:32;;;;;;;4.05;1.77;;;;;;;3.70;32.06;95490.13;6320128;28;20036;-64
2022/03/07 06:00:37;;;;;;;2.13;1.60;;;;;;;7.27;28.48;95488.09;6320184;28;20201;-63
2022/03/07 06:03:43;;;;;;;2.10;1.40;;;;;;;10.22;25.94;95502.28;6320010;28;20039;-65
2022/03/07 06:06:48;;;;;;;2.25;1.95;;;;;;;11.19;24.04;95503.47;6320120;28;20040;-64
2022/03/07 06:09:53;;;;;;;1.35;1.00;;;;;;;11.24;24.38;95509.16;6319800;28;20044;-65
2022/03/07 06:12:57;;;;;;;1.95;1.40;;;;;;;12.10;23.43;95514.53;6319603;28;20090;-65
2022/03/07 06:16:02;;;;;;;1.67;1.48;;;;;;;12.80;22.46;95509.72;6320157;28;20503;-64
2022/03/07 06:19:07;;;;;;;;;;;;;;;15.65;18.94;95514.50;6320298;28;20134;-64
2022/03/07 06:22:13;;;;;;;2.42;1.98;;;;;;;16.14;19.04;95517.19;6318570;28;19923;-64
2022/03/07 06:25:18;;;;;;;2.50;1.73;;;;;;;14.50;19.26;95512.41;6319364;28;20043;-63
2022/03/07 06:28:22;;;;;;;4.63;2.10;;;;;;;13.52;18.63;95509.03;6319925;28;20592;-64
2022/03/07 06:31:27;;;;;;;5.43;3.40;;;;;;;13.79;18.48;95513.41;6319848;28;20040;-65
2022/03/07 06:34:33;;;;;;;2.22;1.85;;;;;;;13.38;18.28;95516.47;6324282;28;20079;-64
2022/03/07 06:37:38;;;;;;;2.67;2.10;;;;;;;13.06;18.00;95526.69;6324163;28;20058;-64
2022/03/07 06:40:45;;;;;;;5.68;4.60;;;;;;;13.52;16.73;95522.25;6323031;28;20047;-64
2022/03/07 06:43:50;;;;;;;7.95;6.80;;;;;;;14.14;17.07;95533.66;6322647;28;20044;-65
2022/03/07 06:46:56;;;;;;;6.25;5.70;;;;;;;13.83;16.76;95531.44;6322562;28;20044;-64
2022/03/07 06:50:03;;;;;;;8.27;6.40;;;;;;;13.11;16.38;95524.44;6322870;28;20158;-65
2022/03/07 06:53:10;;;;;;;11.98;6.22;;;;;;;12.24;17.13;95537.00;6323411;28;20055;-64
2022/03/07 06:56:17;;;;;;;16.20;8.00;;;;;;;12.43;17.08;95535.28;6323631;28;20040;-64
2022/03/07 06:59:24;;;;;;;14.00;6.60;;;;;;;13.75;15.66;95534.00;6323768;28;20550;-65
2022/03/07 07:02:29;;;;;;;15.25;7.97;;;;;;;16.08;14.60;95536.44;6324051;28;20047;-65
2022/03/07 07:05:34;;;;;;;11.30;5.07;;;;;;;19.14;12.79;95542.31;6323625;28;20044;-65
2022/03/07 07:08:39;;;;;;;7.47;3.70;;;;;;;21.65;11.23;95543.84;6323411;28;20032;-65
2022/03/07 07:11:47;;;;;;;5.28;2.50;;;;;;;23.35;10.28;95550.50;6323227;28;20131;-65
2022/03/07 07:14:52;;;;;;;3.47;1.85;;;;;;;23.86;10.00;95552.38;6323584;28;20495;-65
2022/03/07 07:18:25;;;;;;;2.22;2.00;;;;;;;23.82;10.11;95550.34;6323316;28;20450;-65
2022/03/07 07:21:30;;;;;;;2.33;1.48;;;;;;;21.63;10.77;95543.25;6320862;28;20048;-65
2022/03/07 07:24:37;;;;;;;2.40;1.58;;;;;;;20.07;10.87;95543.41;6323169;28;20047;-65
2022/03/07 07:27:41;;;;;;;2.10;1.55;;;;;;;20.03;11.19;95547.44;6323015;28;20035;-64
2022/03/07 07:30:47;;;;;;;3.22;1.92;;;;;;;19.90;11.18;95552.66;6322967;28;20044;-64
2022/03/07 07:33:53;;;;;;;1.88;1.40;;;;;;;20.28;10.86;95547.91;6323021;28;20422;-65
2022/03/07 07:37:00;;;;;;;3.92;1.85;;;;;;;20.94;10.11;95563.63;6305131;28;20058;-65
2022/03/07 07:40:05;;;;;;;2.75;1.60;;;;;;;20.97;10.35;95560.56;6321688;28;20044;-64
2022/03/07 07:43:11;;;;;;;1.38;1.10;;;;;;;20.80;10.20;95572.59;6321899;28;20048;-64
2022/03/07 07:46:18;;;;;;;2.25;1.10;;;;;;;20.09;10.50;95560.03;6321571;28;20040;-64
2022/03/07 07:49:24;;;;;;;1.20;0.60;;;;;;;18.92;11.21;95561.91;6322914;28;20109;-64
2022/03/07 07:52:28;;;;;;;1.52;0.60;;;;;;;17.91;11.12;95566.56;6321025;28;20142;-64
2022/03/07 07:55:33;;;;;;;0.63;0.60;;;;;;;17.72;11.53;95557.19;6322550;28;20043;-65
2022/03/07 07:58:39;;;;;;;1.10;0.70;;;;;;;18.10;11.52;95559.97;6322512;28;20135;-65
2022/03/07 08:01:44;;;;;;;1.67;0.75;;;;;;;19.09;10.74;95563.38;6322417;28;20039;-65
2022/03/07 08:04:51;;;;;;;0.90;0.65;;;;;;;20.47;10.05;95559.78;6320605;28;20518;-65
2022/03/07 08:07:58;;;;;;;2.50;0.80;;;;;;;22.48;9.17;95567.75;6321694;28;20055;-65
2022/03/07 08:11:03;;;;;;;1.13;0.70;;;;;;;24.70;7.91;95577.28;6321833;28;20044;-65
2022/03/07 08:14:07;;;;;;;1.33;0.85;;;;;;;25.82;7.71;95571.81;6321769;28;20089;-65
2022/03/07 08:17:14;;;;;;;3.38;1.73;;;;;;;25.70;7.41;95568.22;6321509;28;20067;-65
2022/03/07 08:20:27;;;;;;;2.28;1.65;;;;;;;25.10;7.51;95572.38;6321719;28;20051;-64
2022/03/07 08:23:33;;;;;;;5.05;3.53;;;;;;;25.84;7.34;95567.03;6320805;28;20065;-64
2022/03/07 08:26:38;;;;;;;4.75;2.58;;;;;;;27.10;6.88;95570.53;6303724;28;20077;-64
2022/03/07 08:29:44;;;;;;;7.45;4.28;;;;;;;27.42;6.69;95577.47;6322021;28;20044;-64
2022/03/07 08:32:49;;;;;;;5.53;3.90;;;;;;;27.40;6.58;95579.59;6319943;28;20060;-65
2022/03/07 08:35:55;;;;;;;3.38;2.35;;;;;;;26.10;6.98;95570.44;6321214;28;20036;-64
2022/03/07 08:38:59;;;;;;;2.95;2.10;;;;;;;26.80;6.94;95565.25;6321425;28;20063;-66
2022/03/07 08:42:04;;;;;;;2.65;1.58;;;;;;;28.00;6.26;95573.84;6321359;28;20044;-65
2022/03/07 08:45:09;;;;;;;1.58;0.93;;;;;;;28.28;5.78;95572.19;6321310;28;20165;-64
2022/03/07 08:48:14;;;;;;;1.50;1.20;;;;;;;28.03;5.86;95576.06;6321217;28;20040;-65
2022/03/07 08:51:19;;;;;;;2.65;1.67;;;;;;;28.57;5.74;95570.31;6320944;28;20047;-65
2022/03/07 08:54:24;;;;;;;1.52;1.13;;;;;;;28.62;5.88;95573.94;6319114;28;20052;-64
2022/03/07 08:57:31;;;;;;;1.85;1.48;;;;;;;27.39;6.33;95577.94;6320945;28;20507;-65
2022/03/07 09:00:36;;;;;;;2.75;1.52;;;;;;;27.01;6.04;95571.13;6319399;28;20052;-65
2022/03/07 09:03:41;;;;;;;3.33;2.30;;;;;;;27.97;5.70;95579.75;6319576;28;20044;-64
2022/03/07 09:06:46;;;;;;;3.70;2.25;;;;;;;27.52;5.75;95577.72;6320916;28;20048;-65
2022/03/07 09:09:51;;;;;;;1.60;1.35;;;;;;;26.43;6.40;95578.03;6320979;28;20518;-64
2022/03/07 09:12:57;;;;;;;2.28;1.77;;;;;;;25.91;5.93;95583.97;6320601;28;20146;-64
2022/03/07 09:16:02;;;;;;;4.13;3.05;;;;;;;24.61;6.69;95581.31;6319370;28;20067;-65
2022/03/07 09:19:10;;;;;;;3.92;1.88;;;;;;;24.07;6.94;95575.44;6319011;28;20075;-64
2022/03/07 09:22:16;;;;;;;2.35;1.95;;;;;;;23.39;7.03;95580.44;6320377;28;20040;-65
2022/03/07 09:25:21;;;;;;;2.78;2.17;;;;;;;22.67;7.44;95574.94;6320543;28;20044;-65
2022/03/07 09:28:27;;;;;;;2.90;2.10;;;;;;;22.19;7.30;95581.31;6320559;28;20048;-65
2022/03/07 09:31:32;;;;;;;2.22;1.85;;;;;;;22.40;7.64;95588.34;6320503;28;20044;-65
2022/03/07 09:34:37;;;;;;;2.70;2.00;;;;;;;23.77;7.05;95593.97;6319243;28;20054;-65
2022/03/07 09:37:41;;;;;;;2.47;2.05;;;;;;;23.74;7.11;95611.31;6318915;28;20036;-65
2022/03/07 09:40:47;;;;;;;5.68;2.45;;;;;;;22.65;7.08;95603.84;6320403;28;20040;-64
2022/03/07 09:43:51;;;;;;;1.88;1.38;;;;;;;22.91;6.99;95605.69;6318912;28;20506;-64
2022/03/07 09:46:59;;;;;;;1.42;0.95;;;;;;;23.71;6.71;95610.94;6320057;28;20046;-65
2022/03/07 09:50:03;;;;;;;1.50;1.10;;;;;;;24.04;6.55;95608.09;6320238;28;20084;-65
2022/03/07 09:53:09;;;;;;;1.45;1.13;;;;;;;23.98;6.91;95600.91;6319727;28;20043;-64
2022/03/07 09:56:13;;;;;;;2.20;1.40;;;;;;;24.14;6.90;95605.75;6320052;28;20070;-65
2022/03/07 09:59:21;;;;;;;2.63;1.60;;;;;;;24.17;6.69;95605.31;6319936;28;20085;-65
2022/03/07 10:02:25;;;;;;;2.25;1.00;;;;;;;23.98;6.72;95600.91;6302147;28;20053;-65
2022/03/07 10:05:35;;;;;;;10.82;6.35;;;;;;;23.65;6.75;95612.56;6319856;28;20059;-65
2022/03/07 10:08:39;;;;;;;5.38;3.42;;;;;;;22.88;6.97;95610.63;6323909;28;20040;-64
2022/03/07 10:11:53;;;;;;;2.42;1.15;;;;;;;22.04;7.30;95606.59;6324507;28;20084;-64
2022/03/07 10:14:56;;;;;;;1.13;0.88;;;;;;;20.88;8.15;95615.22;6324761;28;20162;-64
2022/03/07 10:18:03;;;;;;;1.48;1.08;;;;;;;20.26;8.33;95623.88;6324818;28;20414;-64
2022/03/07 10:21:07;;;;;;;2.20;1.77;;;;;;;19.55;8.41;95624.50;6324857;28;20044;-65
2022/03/07 10:24:14;;;;;;;4.13;2.17;;;;;;;18.25;8.95;95626.56;6324694;28;20539;-66
2022/03/07 10:27:29;;;;;;;3.60;2.35;;;;;;;17.71;9.48;95625.53;6324493;28;20150;-65
2022/03/07 10:30:33;;;;;;;3.13;2.30;;;;;;;17.94;9.21;95625.59;6324528;28;20050;-65
2022/03/07 10:33:37;;;;;;;2.78;2.00;;;;;;;17.70;9.17;95625.72;6322998;28;20032;-65
2022/03/07 10:36:46;;;;;;;2.95;2.35;;;;;;;16.33;10.04;95630.16;6324067;28;20044;-66
2022/03/07 10:39:54;;;;;;;1.77;1.52;;;;;;;14.44;11.12;95634.78;6324315;28;20419;-66
2022/03/07 10:43:00;;;;;;;4.15;2.40;;;;;;;13.39;12.03;95634.41;6322976;28;20043;-65
2022/03/07 10:46:05;;;;;;;3.97;2.33;;;;;;;12.90;12.29;95627.63;6322611;28;20518;-64
2022/03/07 10:49:15;;;;;;;2.50;1.90;;;;;;;12.84;12.63;95634.31;6323906;28;20040;-64
2022/03/07 10:52:20;;;;;;;2.40;1.92;;;;;;;13.62;12.00;95649.88;6324061;28;20040;-65
2022/03/07 10:55:28;;;;;;;4.10;2.75;;;;;;;14.01;11.87;95660.19;6323685;28;20196;-66
2022/03/07 10:58:44;;;;;;;5.63;3.33;;;;;;;14.71;11.55;95655.84;6324067;28;20040;-65
2022/03/07 11:02:00;;;;;;;4.25;2.67;;;;;;;15.43;11.12;95652.97;6322345;28;20054;-66
2022/03/07 11:05:07;;;;;;;6.22;2.10;;;;;;;14.10;11.50;95654.00;6323642;28;20051;-66
2022/03/07 11:08:15;;;;;;;7.07;3.25;;;;;;;12.54;12.60;95665.25;6322037;28;20044;-65
2022/03/07 11:11:21;;;;;;;2.70;2.20;;;;;;;8.81;15.17;95655.56;6323459;28;20043;-65
2022/03/07 11:14:28;;;;;;;3.90;1.80;;;;;;;8.04;16.31;95656.91;6322806;28;20052;-65
2022/03/07 11:17:33;;;;;;;4.70;2.25;;;;;;;7.81;16.65;95655.13;6321923;28;20124;-66
2022/03/07 11:20:41;;;;;;;2.63;1.77;;;;;;;7.27;16.55;95660.78;6322082;28;20123;-65
2022/03/07 11:23:46;;;;;;;3.17;1.90;;;;;;;5.32;18.06;95664.25;6322929;28;20040;-64
2022/03/07 11:26:52;;;;;;;3.08;2.30;;;;;;;3.53;20.04;95674.94;6321810;28;20089;-65
2022/03/07 11:29:57;;;;;;;2.83;1.80;;;;;;;1.98;21.54;95665.84;6304690;28;20048;-65
2022/03/07 11:33:10;;;;;;;2.70;1.80;;;;;;;0.14;24.07;95682.19;6322635;28;20040;-64
2022/03/07 11:36:22;;;;;;;4.13;2.50;;;;;;;-0.30;25.22;95689.19;6322906;28;20178;-65
2022/03/07 11:39:37;;;;;;;5.72;2.60;;;;;;;-0.79;25.39;95685.97;6322875;28;20200;-65
2022/03/07 11:42:42;;;;;;;5.30;2.88;;;;;;;-0.78;25.06;95682.53;6322353;28;20043;-65
2022/03/07 11:45:46;;;;;;;9.23;4.97;;;;;;;-0.56;25.89;95685.94;6322351;28;20134;-64
2022/03/07 11:48:51;;;;;;;10.55;4.70;;;;;;;0.21;24.64;95687.91;6321413;28;20173;-65
2022/03/07 11:52:06;;;;;;;7.30;3.95;;;;;;;1.29;23.34;95699.47;6322284;28;20040;-66
2022/03/07 11:55:21;;;;;;;5.85;3.30;;;;;;;1.89;22.86;95696.56;6322079;28;20044;-65
2022/03/07 11:58:36;;;;;;;5.18;3.97;;;;;;;2.53;22.57;95703.72;6321114;28;20127;-67
2022/03/07 12:01:53;;;;;;;8.98;4.53;;;;;;;2.89;22.13;95697.50;6318718;28;20169;-65
2022/03/07 12:04:58;;;;;;;7.25;5.10;;;;;;;2.96;21.94;95704.03;6322137;28;20044;-66
2022/03/07 12:08:18;;;;;;;6.70;3.70;;;;;;;3.33;21.76;95709.84;6320720;28;20151;-66
2022/03/07 12:11:29;;;;;;;4.65;2.80;;;;;;;2.68;22.49;95713.28;6320708;28;20044;-66
2022/03/07 12:14:36;;;;;;;4.68;2.45;;;;;;;2.04;22.99;95721.78;6321738;28;20055;-65
2022/03/07 12:17:42;;;;;;;3.83;2.13;;;;;;;1.39;24.09;95723.19;6321686;28;20044;-65
2022/03/07 12:20:54;;;;;;;3.42;2.58;;;;;;;0.66;25.19;95723.06;6321895;28;20044;-65
2022/03/07 12:23:59;;;;;;;4.50;3.25;;;;;;;-0.03;25.90;95724.25;6321449;28;20052;-64
2022/03/07 12:27:02;;;;;;;5.25;3.05;;;;;;;-0.56;26.56;95726.44;6321220;28;20043;-65
2022/03/07 12:30:08;;;;;;;5.10;3.70;;;;;;;-0.91;27.22;95742.41;6320724;28;20032;-65
2022/03/07 12:33:13;;;;;;;5.25;3.40;;;;;;;-0.96;27.42;95743.47;6321056;28;20061;-65
2022/03/07 12:36:17;;;;;;;4.43;3.60;;;;;;;-1.02;27.67;95743.69;6320178;28;20044;-65
2022/03/07 12:39:22;;;;;;;3.85;2.92;;;;;;;-0.94;27.08;95752.81;6302881;28;20201;-65
2022/03/07 12:42:32;;;;;;;5.32;3.33;;;;;;;-1.22;28.52;95759.91;6320128;28;20503;-67
2022/03/07 12:45:46;;;;;;;4.05;3.45;;;;;;;-1.52;29.79;95773.00;6321277;28;20198;-65
2022/03/07 12:48:50;;;;;;;6.28;3.65;;;;;;;-1.89;28.35;95763.13;6321211;28;20044;-66
2022/03/07 12:51:55;;;;;;;8.23;5.43;;;;;;;-1.99;29.04;95772.03;6321087;28;20044;-67
2022/03/07 12:55:01;;;;;;;6.75;4.40;;;;;;;-2.26;29.81;95772.91;6319198;28;20511;-66
2022/03/07 12:58:07;;;;;;;7.93;4.47;;;;;;;-2.44;29.92;95782.94;6320865;28;20036;-67
2022/03/07 13:01:12;;;;;;;8.30;4.25;;;;;;;-2.76;30.69;95777.88;6320714;28;20036;-66
2022/03/07 13:04:18;;;;;;;5.13;3.72;;;;;;;-3.18;31.31;95788.53;6320817;28;20422;-65
2022/03/07 13:07:25;;;;;;;6.53;3.83;;;;;;;-3.93;32.68;95787.19;6320919;28;20050;-65
2022/03/07 13:10:31;;;;;;;8.60;4.22;;;;;;;-4.32;32.49;95784.72;6319302;28;20051;-68
2022/03/07 13:13:43;;;;;;;7.95;4.47;;;;;;;-4.70;34.22;95793.28;6301458;28;20047;-67
2022/03/07 13:16:48;;;;;;;13.35;6.25;;;;;;;-5.09;34.11;95791.56;6319224;28;20036;-65
2022/03/07 13:19:54;;;;;;;8.82;5.50;;;;;;;-5.30;34.09;95797.13;6319707;28;20078;-65
2022/03/07 13:23:01;;;;;;;8.85;5.35;;;;;;;-5.62;35.09;95796.03;6318059;28;20039;-65
2022/03/07 13:26:21;;;;;;;24.35;11.02;;;;;;;-5.87;36.28;95799.03;6319769;28;20512;-66
2022/03/07 13:29:26;;;;;;;7.95;4.50;;;;;;;-5.97;35.95;95802.69;6318102;28;20055;-64
2022/03/07 13:32:38;;;;;;;7.78;3.70;;;;;;;-6.01;35.65;95805.31;6318102;28;20043;-65
2022/03/07 13:35:42;;;;;;;4.90;3.03;;;;;;;-6.14;35.92;95812.38;6318300;28;20035;-64
2022/03/07 13:38:45;;;;;;;5.18;3.20;;;;;;;-6.37;35.88;95821.28;6319018;28;20044;-65
2022/03/07 13:42:04;;;;;;;3.83;2.95;;;;;;;-6.68;37.68;95817.47;6317145;28;20036;-65
2022/03/07 13:45:15;;;;;;;4.65;2.80;;;;;;;-6.91;37.17;95823.75;6318112;28;20139;-66
2022/03/07 13:48:18;;;;;;;5.20;2.67;;;;;;;-7.21;37.63;95821.63;6318162;28;20036;-67
2022/03/07 13:51:30;;;;;;;5.93;3.22;;;;;;;-7.27;38.07;95841.28;6317976;28;20040;-68
2022/03/07 13:54:39;;;;;;;9.82;3.08;;;;;;;-7.57;39.30;95839.91;6318779;28;20046;-68
2022/03/07 13:57:54;;;;;;;4.82;3.15;;;;;;;-7.75;39.12;95843.50;6300933;28;20040;-68
2022/03/07 14:01:12;;;;;;;6.78;3.33;;;;;;;-7.89;39.53;95853.00;6317555;28;20059;-68
2022/03/07 14:04:18;;;;;;;5.13;3.47;;;;;;;-8.06;38.95;95863.38;6318905;28;20055;-68
2022/03/07 14:07:29;;;;;;;6.90;3.65;;;;;;;-8.22;39.55;95865.19;6318949;28;20051;-68
2022/03/07 14:10:33;;;;;;;5.40;3.58;;;;;;;-8.37;39.69;95872.97;6319482;28;20036;-67
2022/03/07 14:13:42;;;;;;;11.85;5.65;;;;;;;-8.47;40.06;95876.47;6266866;28;1478887;-65
2022/03/07 14:16:47;;;;;;;5.13;3.30;;;;;;;-8.55;39.70;95879.06;6319532;28;20039;-65
2022/03/07 14:19:51;;;;;;;5.95;3.50;;;;;;;-8.64;40.12;95887.63;6319826;28;20036;-66
2022/03/07 14:22:57;;;;;;;4.25;3.00;;;;;;;-8.66;40.00;95891.91;6319519;28;20044;-66
2022/03/07 14:26:02;;;;;;;7.10;3.97;;;;;;;-8.78;40.28;95906.41;6318212;28;20074;-65
2022/03/07 14:29:09;;;;;;;9.65;4.28;;;;;;;-8.92;40.54;95903.94;6318193;28;20052;-67
2022/03/07 14:32:14;;;;;;;18.23;7.57;;;;;;;-8.97;40.71;95919.25;6319469;28;20414;-67
2022/03/07 14:35:19;;;;;;;18.48;6.05;;;;;;;-9.07;40.67;95915.88;6319611;28;20075;-66